Main page
METAR-TAF:

METAR-TAF

Airports :

Cognac – Châteaubernard Air Base

Cognac, France

latitude: 45-40N, longitude: 000-19W, elevation: 30 m

Current weather observation

The report was made 32 minutes ago, at 12:00 UTC
Wind 11 kt from the North/Northeast, varying between North and Northeast
Temperature 12°C
Humidity 47%
Pressure 1020 hPa
Visibility 10 km or more
no clouds below 1500 m and no cumulonimbus

METAR: LFBG 081200Z AUTO 02011KT 350V050 CAVOK 12/01 Q1020 NOSIG

Time: 13:32 (12:32 UTC)

Forecast

The report was made 4 hours and 32 minutes ago, at 08:00 UTC
Forecast valid from 08 at 09 UTC to 09 at 09 UTC
Wind 10 kt from the North/Northeast
Visibility 10 km or more
no clouds below 1500 m and no cumulonimbus

TAF: LFBG 080800Z 0809/0909 03010KT CAVOK

Weather observations and forecasts of more than 4000 airports (METAR and TAF reports).

The available stations are represented by yellow and red dots on the map.

Hover mouse over dot to see the name of the station.

Then click to see weather observations and forecasts.

To change the map : click on the green buttons with a black cross to zoom in, on the green button with a dash to zoom out, or on the green arrows for adjacent maps.


METAR-TAF: